sensor_id;sensor_type;location;lat;lon;timestamp;pressure;altitude;pressure_sealevel;temperature;humidity
71948;BME280;63257;55.082;38.772;2022-10-31T00:06:13;98211.81;;;-0.81;71.88
71948;BME280;63257;55.082;38.772;2022-10-31T00:08:59;98197.97;;;-0.80;72.36
71948;BME280;63257;55.082;38.772;2022-10-31T00:11:44;98196.13;;;-0.77;72.27
71948;BME280;63257;55.082;38.772;2022-10-31T00:33:14;98187.47;;;-0.52;70.67
71948;BME280;63257;55.082;38.772;2022-10-31T00:35:40;98163.47;;;-0.57;70.32
71948;BME280;63257;55.082;38.772;2022-10-31T00:42:24;98184.25;;;-0.35;70.43
71948;BME280;63257;55.082;38.772;2022-10-31T01:00:06;98156.34;;;-0.28;69.21
71948;BME280;63257;55.082;38.772;2022-10-31T01:07:09;98186.44;;;-0.24;68.64
71948;BME280;63257;55.082;38.772;2022-10-31T01:09:53;98166.00;;;-0.10;69.12
71948;BME280;63257;55.082;38.772;2022-10-31T01:12:19;98139.72;;;-0.23;69.53
71948;BME280;63257;55.082;38.772;2022-10-31T01:15:04;98168.38;;;-0.04;69.15
71948;BME280;63257;55.082;38.772;2022-10-31T01:22:01;98168.84;;;-0.16;68.30
71948;BME280;63257;55.082;38.772;2022-10-31T01:38:43;98177.41;;;-0.14;69.91
71948;BME280;63257;55.082;38.772;2022-10-31T01:41:31;98162.09;;;-0.20;71.00
71948;BME280;63257;55.082;38.772;2022-10-31T01:47:54;98181.22;;;-0.23;73.08
71948;BME280;63257;55.082;38.772;2022-10-31T01:50:57;98179.22;;;-0.16;73.58
71948;BME280;63257;55.082;38.772;2022-10-31T01:57:04;98176.19;;;-0.27;74.57
71948;BME280;63257;55.082;38.772;2022-10-31T02:10:14;98178.00;;;-0.29;76.79
71948;BME280;63257;55.082;38.772;2022-10-31T02:13:02;98179.88;;;-0.33;76.48
71948;BME280;63257;55.082;38.772;2022-10-31T02:15:54;98148.66;;;-0.54;78.04
71948;BME280;63257;55.082;38.772;2022-10-31T02:18:39;98164.59;;;-0.41;78.05
71948;BME280;63257;55.082;38.772;2022-10-31T02:53:07;98163.50;;;-0.35;78.11
71948;BME280;63257;55.082;38.772;2022-10-31T03:00:22;98167.75;;;-0.32;77.50
71948;BME280;63257;55.082;38.772;2022-10-31T03:03:14;98173.66;;;-0.29;77.71
71948;BME280;63257;55.082;38.772;2022-10-31T03:06:00;98173.88;;;-0.35;78.56
71948;BME280;63257;55.082;38.772;2022-10-31T03:15:43;98142.75;;;-0.57;79.20
71948;BME280;63257;55.082;38.772;2022-10-31T03:20:52;98159.34;;;-0.63;79.20
71948;BME280;63257;55.082;38.772;2022-10-31T03:27:48;98160.38;;;-0.43;78.69
71948;BME280;63257;55.082;38.772;2022-10-31T03:30:18;98144.50;;;-0.58;78.86
71948;BME280;63257;55.082;38.772;2022-10-31T03:46:26;98165.50;;;-0.42;78.48
71948;BME280;63257;55.082;38.772;2022-10-31T03:57:00;98159.34;;;-0.39;79.91
71948;BME280;63257;55.082;38.772;2022-10-31T04:08:03;98178.19;;;-0.58;81.63
71948;BME280;63257;55.082;38.772;2022-10-31T04:10:52;98177.16;;;-0.54;81.42
71948;BME280;63257;55.082;38.772;2022-10-31T04:17:35;98173.09;;;-0.61;83.09
71948;BME280;63257;55.082;38.772;2022-10-31T04:20:39;98177.44;;;-0.61;82.29
71948;BME280;63257;55.082;38.772;2022-10-31T04:23:14;98179.28;;;-0.65;82.59
71948;BME280;63257;55.082;38.772;2022-10-31T04:25:42;98186.34;;;-0.69;83.03
71948;BME280;63257;55.082;38.772;2022-10-31T04:28:08;98175.22;;;-0.72;82.43
71948;BME280;63257;55.082;38.772;2022-10-31T04:30:53;98188.06;;;-0.69;83.10
71948;BME280;63257;55.082;38.772;2022-10-31T04:46:16;98191.47;;;-0.67;83.40
71948;BME280;63257;55.082;38.772;2022-10-31T04:52:05;98212.19;;;-0.67;84.27
71948;BME280;63257;55.082;38.772;2022-10-31T04:58:12;98190.66;;;-0.69;84.69
71948;BME280;63257;55.082;38.772;2022-10-31T05:00:37;98210.22;;;-0.60;83.72
71948;BME280;63257;55.082;38.772;2022-10-31T05:03:04;98206.72;;;-0.59;84.03
71948;BME280;63257;55.082;38.772;2022-10-31T05:05:31;98199.50;;;-0.51;84.23
71948;BME280;63257;55.082;38.772;2022-10-31T05:07:59;98217.50;;;-0.46;83.99
71948;BME280;63257;55.082;38.772;2022-10-31T05:10:28;98207.97;;;-0.70;84.30
71948;BME280;63257;55.082;38.772;2022-10-31T05:12:59;98238.50;;;-0.54;84.27
71948;BME280;63257;55.082;38.772;2022-10-31T05:15:44;98214.34;;;-0.55;83.96
71948;BME280;63257;55.082;38.772;2022-10-31T05:18:16;98212.66;;;-0.56;83.51
71948;BME280;63257;55.082;38.772;2022-10-31T05:21:19;98214.13;;;-0.48;83.73
71948;BME280;63257;55.082;38.772;2022-10-31T05:24:04;98240.78;;;-0.45;83.18
71948;BME280;63257;55.082;38.772;2022-10-31T05:26:32;98231.38;;;-0.47;82.68
71948;BME280;63257;55.082;38.772;2022-10-31T05:29:16;98236.00;;;-0.32;82.83
71948;BME280;63257;55.082;38.772;2022-10-31T05:31:43;98230.47;;;-0.23;82.71
71948;BME280;63257;55.082;38.772;2022-10-31T05:34:19;98221.38;;;-0.35;81.87
71948;BME280;63257;55.082;38.772;2022-10-31T05:37:24;98235.84;;;-0.27;82.05
71948;BME280;63257;55.082;38.772;2022-10-31T05:40:09;98248.94;;;-0.32;82.65
71948;BME280;63257;55.082;38.772;2022-10-31T05:42:41;98239.09;;;-0.22;82.43
71948;BME280;63257;55.082;38.772;2022-10-31T05:45:13;98252.91;;;-0.22;82.12
71948;BME280;63257;55.082;38.772;2022-10-31T05:48:11;98258.72;;;-0.15;82.08
71948;BME280;63257;55.082;38.772;2022-10-31T05:51:14;98262.53;;;-0.02;81.30
71948;BME280;63257;55.082;38.772;2022-10-31T05:54:02;98270.38;;;-0.03;81.42
71948;BME280;63257;55.082;38.772;2022-10-31T05:59:33;98268.53;;;0.01;81.15
71948;BME280;63257;55.082;38.772;2022-10-31T06:02:19;98274.34;;;0.07;81.09
71948;BME280;63257;55.082;38.772;2022-10-31T06:05:12;98271.63;;;-0.13;80.84
71948;BME280;63257;55.082;38.772;2022-10-31T06:10:43;98279.81;;;-0.01;80.87
71948;BME280;63257;55.082;38.772;2022-10-31T06:13:10;98274.00;;;-0.07;80.57
71948;BME280;63257;55.082;38.772;2022-10-31T06:16:03;98296.44;;;0.17;80.02
71948;BME280;63257;55.082;38.772;2022-10-31T06:19:04;98322.88;;;0.04;80.11
71948;BME280;63257;55.082;38.772;2022-10-31T06:21:31;98297.13;;;-0.01;81.08
71948;BME280;63257;55.082;38.772;2022-10-31T06:23:58;98299.78;;;-0.03;80.89
71948;BME280;63257;55.082;38.772;2022-10-31T06:32:47;98298.94;;;0.21;80.52
71948;BME280;63257;55.082;38.772;2022-10-31T06:35:36;98316.47;;;0.14;80.24
71948;BME280;63257;55.082;38.772;2022-10-31T06:38:01;98312.69;;;0.23;80.08
71948;BME280;63257;55.082;38.772;2022-10-31T06:40:54;98333.38;;;0.24;79.67
71948;BME280;63257;55.082;38.772;2022-10-31T06:43:40;98330.31;;;0.37;79.08
71948;BME280;63257;55.082;38.772;2022-10-31T06:46:26;98333.16;;;0.30;nan
71948;BME280;63257;55.082;38.772;2022-10-31T06:49:14;98348.88;;;0.26;78.76
71948;BME280;63257;55.082;38.772;2022-10-31T06:51:49;98350.81;;;0.44;78.45
71948;BME280;63257;55.082;38.772;2022-10-31T06:54:16;98344.75;;;0.44;77.72
71948;BME280;63257;55.082;38.772;2022-10-31T06:56:42;98362.22;;;0.40;78.07
71948;BME280;63257;55.082;38.772;2022-10-31T06:59:10;98366.50;;;0.41;78.21
71948;BME280;63257;55.082;38.772;2022-10-31T07:02:00;98369.03;;;0.43;77.84
71948;BME280;63257;55.082;38.772;2022-10-31T07:04:26;98380.84;;;0.28;78.13
71948;BME280;63257;55.082;38.772;2022-10-31T07:07:14;98369.19;;;0.38;77.71
71948;BME280;63257;55.082;38.772;2022-10-31T07:09:58;98391.34;;;0.48;77.17
71948;BME280;63257;55.082;38.772;2022-10-31T07:13:01;98390.25;;;0.54;76.67
71948;BME280;63257;55.082;38.772;2022-10-31T07:15:49;98401.41;;;0.56;76.53
71948;BME280;63257;55.082;38.772;2022-10-31T07:18:16;98398.59;;;0.62;76.15
71948;BME280;63257;55.082;38.772;2022-10-31T07:21:00;98416.78;;;0.62;75.73
71948;BME280;63257;55.082;38.772;2022-10-31T07:23:48;98417.78;;;0.82;75.98
71948;BME280;63257;55.082;38.772;2022-10-31T07:29:34;98422.81;;;0.63;75.56
71948;BME280;63257;55.082;38.772;2022-10-31T07:32:00;98423.78;;;0.84;75.18
71948;BME280;63257;55.082;38.772;2022-10-31T07:34:29;98441.66;;;0.92;74.96
71948;BME280;63257;55.082;38.772;2022-10-31T07:37:14;98447.53;;;0.97;74.64
71948;BME280;63257;55.082;38.772;2022-10-31T07:42:44;98454.09;;;1.06;74.29
71948;BME280;63257;55.082;38.772;2022-10-31T07:45:30;98459.38;;;1.04;74.55
71948;BME280;63257;55.082;38.772;2022-10-31T07:48:33;98464.78;;;1.22;73.82
71948;BME280;63257;55.082;38.772;2022-10-31T07:51:36;98477.00;;;1.20;74.21
71948;BME280;63257;55.082;38.772;2022-10-31T07:54:39;98497.00;;;1.17;73.83
71948;BME280;63257;55.082;38.772;2022-10-31T07:57:08;98477.56;;;1.26;73.85
71948;BME280;63257;55.082;38.772;2022-10-31T07:59:34;98503.63;;;1.25;73.59
71948;BME280;63257;55.082;38.772;2022-10-31T08:02:00;98477.72;;;1.45;73.00
71948;BME280;63257;55.082;38.772;2022-10-31T08:04:51;98498.81;;;1.60;72.55
71948;BME280;63257;55.082;38.772;2022-10-31T08:07:26;98499.16;;;1.73;72.36
71948;BME280;63257;55.082;38.772;2022-10-31T08:09:58;98495.06;;;1.67;72.59
71948;BME280;63257;55.082;38.772;2022-10-31T08:12:29;98515.81;;;1.68;72.47
71948;BME280;63257;55.082;38.772;2022-10-31T08:14:54;98520.94;;;1.70;73.00
71948;BME280;63257;55.082;38.772;2022-10-31T08:17:20;98507.78;;;1.52;73.49
71948;BME280;63257;55.082;38.772;2022-10-31T08:20:06;98544.50;;;1.67;72.69
71948;BME280;63257;55.082;38.772;2022-10-31T08:22:39;98523.31;;;1.54;72.93
71948;BME280;63257;55.082;38.772;2022-10-31T08:25:05;98537.16;;;1.55;72.81
71948;BME280;63257;55.082;38.772;2022-10-31T08:27:51;98547.03;;;1.68;72.62
71948;BME280;63257;55.082;38.772;2022-10-31T08:30:39;98547.63;;;1.75;72.49
71948;BME280;63257;55.082;38.772;2022-10-31T08:33:39;98553.38;;;1.83;72.03
71948;BME280;63257;55.082;38.772;2022-10-31T08:36:28;98565.34;;;2.10;71.30
71948;BME280;63257;55.082;38.772;2022-10-31T08:39:22;98563.94;;;2.23;71.62
71948;BME280;63257;55.082;38.772;2022-10-31T08:42:07;98549.72;;;2.10;70.50
71948;BME280;63257;55.082;38.772;2022-10-31T08:44:33;98580.97;;;1.88;71.36
71948;BME280;63257;55.082;38.772;2022-10-31T08:47:24;98591.38;;;1.88;70.61
71948;BME280;63257;55.082;38.772;2022-10-31T08:49:50;98598.69;;;2.00;70.98
71948;BME280;63257;55.082;38.772;2022-10-31T08:52:34;98578.78;;;1.99;70.36
71948;BME280;63257;55.082;38.772;2022-10-31T08:55:02;98602.50;;;2.13;70.77
71948;BME280;63257;55.082;38.772;2022-10-31T08:57:58;98596.84;;;2.03;69.69
71948;BME280;63257;55.082;38.772;2022-10-31T09:00:53;98618.75;;;1.98;70.73
71948;BME280;63257;55.082;38.772;2022-10-31T09:03:38;98588.47;;;1.95;69.69
71948;BME280;63257;55.082;38.772;2022-10-31T09:06:25;98603.44;;;1.90;70.17
71948;BME280;63257;55.082;38.772;2022-10-31T09:09:09;98630.72;;;2.02;70.95
71948;BME280;63257;55.082;38.772;2022-10-31T09:11:53;98605.84;;;1.95;71.06
71948;BME280;63257;55.082;38.772;2022-10-31T09:14:22;98596.22;;;1.75;71.28
71948;BME280;63257;55.082;38.772;2022-10-31T09:17:36;98617.59;;;2.05;70.60
71948;BME280;63257;55.082;38.772;2022-10-31T09:20:16;98624.72;;;2.00;70.70
71948;BME280;63257;55.082;38.772;2022-10-31T09:22:42;98617.81;;;1.99;70.78
71948;BME280;63257;55.082;38.772;2022-10-31T09:25:08;98618.34;;;2.07;70.31
71948;BME280;63257;55.082;38.772;2022-10-31T09:27:38;98611.69;;;2.22;69.94
71948;BME280;63257;55.082;38.772;2022-10-31T09:30:06;98614.38;;;2.20;69.72
71948;BME280;63257;55.082;38.772;2022-10-31T09:32:57;98632.41;;;2.47;68.76
71948;BME280;63257;55.082;38.772;2022-10-31T09:35:24;98629.66;;;2.71;68.86
71948;BME280;63257;55.082;38.772;2022-10-31T09:40:50;98637.41;;;2.72;67.49
71948;BME280;63257;55.082;38.772;2022-10-31T09:44:25;98642.25;;;2.61;68.50
71948;BME280;63257;55.082;38.772;2022-10-31T09:52:34;98671.81;;;2.38;69.41
71948;BME280;63257;55.082;38.772;2022-10-31T09:57:49;98653.66;;;2.36;70.34
71948;BME280;63257;55.082;38.772;2022-10-31T10:00:37;98664.91;;;2.37;70.12
71948;BME280;63257;55.082;38.772;2022-10-31T10:03:31;98661.69;;;2.52;70.13
71948;BME280;63257;55.082;38.772;2022-10-31T10:06:22;98660.25;;;2.45;68.67
71948;BME280;63257;55.082;38.772;2022-10-31T10:09:44;98673.38;;;2.64;69.24
71948;BME280;63257;55.082;38.772;2022-10-31T10:24:22;98687.78;;;2.94;68.08
71948;BME280;63257;55.082;38.772;2022-10-31T10:30:02;98711.81;;;3.00;67.83
71948;BME280;63257;55.082;38.772;2022-10-31T10:32:40;98709.94;;;3.04;67.33
71948;BME280;63257;55.082;38.772;2022-10-31T10:40:59;98740.00;;;3.13;66.86
71948;BME280;63257;55.082;38.772;2022-10-31T10:43:45;98738.72;;;3.23;66.15
71948;BME280;63257;55.082;38.772;2022-10-31T10:51:58;98773.22;;;3.28;65.32
71948;BME280;63257;55.082;38.772;2022-10-31T10:54:49;98777.09;;;3.19;64.29
71948;BME280;63257;55.082;38.772;2022-10-31T11:00:42;98774.41;;;3.00;63.12
71948;BME280;63257;55.082;38.772;2022-10-31T11:03:27;98765.66;;;3.01;63.80
71948;BME280;63257;55.082;38.772;2022-10-31T11:06:20;98773.81;;;3.14;63.66
71948;BME280;63257;55.082;38.772;2022-10-31T11:09:24;98777.47;;;3.10;63.10
71948;BME280;63257;55.082;38.772;2022-10-31T11:11:50;98779.38;;;3.07;63.46
71948;BME280;63257;55.082;38.772;2022-10-31T11:14:51;98788.94;;;3.06;63.11
71948;BME280;63257;55.082;38.772;2022-10-31T11:23:19;98791.06;;;2.96;65.00
71948;BME280;63257;55.082;38.772;2022-10-31T11:26:06;98788.78;;;2.88;64.00
71948;BME280;63257;55.082;38.772;2022-10-31T11:28:56;98803.81;;;3.04;64.86
71948;BME280;63257;55.082;38.772;2022-10-31T11:31:22;98788.81;;;2.87;64.48
71948;BME280;63257;55.082;38.772;2022-10-31T11:33:55;98801.44;;;2.76;64.83
71948;BME280;63257;55.082;38.772;2022-10-31T11:36:43;98807.81;;;2.68;64.98
71948;BME280;63257;55.082;38.772;2022-10-31T11:39:20;98814.53;;;2.74;65.66
71948;BME280;63257;55.082;38.772;2022-10-31T11:41:47;98814.06;;;2.64;65.46
71948;BME280;63257;55.082;38.772;2022-10-31T11:44:33;98817.28;;;2.71;65.36
71948;BME280;63257;55.082;38.772;2022-10-31T11:47:30;98804.78;;;2.79;66.00
71948;BME280;63257;55.082;38.772;2022-10-31T11:50:08;98808.06;;;2.84;66.02
71948;BME280;63257;55.082;38.772;2022-10-31T11:52:37;98793.88;;;2.69;66.27
71948;BME280;63257;55.082;38.772;2022-10-31T11:58:04;98812.66;;;2.78;66.26
71948;BME280;63257;55.082;38.772;2022-10-31T12:00:39;98818.84;;;2.75;65.83
71948;BME280;63257;55.082;38.772;2022-10-31T12:03:10;98814.41;;;2.77;66.13
71948;BME280;63257;55.082;38.772;2022-10-31T12:05:39;98792.78;;;2.75;66.07
71948;BME280;63257;55.082;38.772;2022-10-31T12:08:27;98810.84;;;2.80;66.12
71948;BME280;63257;55.082;38.772;2022-10-31T12:13:57;98810.16;;;2.75;64.52
71948;BME280;63257;55.082;38.772;2022-10-31T12:16:36;98796.56;;;2.68;64.89
71948;BME280;63257;55.082;38.772;2022-10-31T12:22:51;98801.88;;;2.65;64.11
71948;BME280;63257;55.082;38.772;2022-10-31T12:42:49;98841.97;;;2.61;65.61
71948;BME280;63257;55.082;38.772;2022-10-31T12:51:33;98850.81;;;2.57;66.58
71948;BME280;63257;55.082;38.772;2022-10-31T13:00:42;98841.41;;;2.52;68.02
71948;BME280;63257;55.082;38.772;2022-10-31T13:03:30;98854.00;;;2.41;69.07
71948;BME280;63257;55.082;38.772;2022-10-31T13:06:19;98853.22;;;2.39;70.86
71948;BME280;63257;55.082;38.772;2022-10-31T13:11:49;98838.72;;;2.08;74.80
71948;BME280;63257;55.082;38.772;2022-10-31T13:17:34;98861.16;;;1.87;76.42
71948;BME280;63257;55.082;38.772;2022-10-31T13:20:23;98871.81;;;1.79;78.00
71948;BME280;63257;55.082;38.772;2022-10-31T13:26:16;98867.00;;;1.68;80.53
71948;BME280;63257;55.082;38.772;2022-10-31T13:32:04;98861.47;;;1.52;82.31
71948;BME280;63257;55.082;38.772;2022-10-31T13:34:52;98879.16;;;1.41;83.23
71948;BME280;63257;55.082;38.772;2022-10-31T13:37:29;98892.94;;;1.45;83.82
71948;BME280;63257;55.082;38.772;2022-10-31T13:42:43;98874.38;;;1.29;85.06
71948;BME280;63257;55.082;38.772;2022-10-31T13:45:29;98876.31;;;1.22;85.40
71948;BME280;63257;55.082;38.772;2022-10-31T13:59:31;98880.28;;;1.07;86.62
71948;BME280;63257;55.082;38.772;2022-10-31T14:05:30;98875.25;;;1.01;87.45
71948;BME280;63257;55.082;38.772;2022-10-31T14:10:50;98873.59;;;0.98;87.45
71948;BME280;63257;55.082;38.772;2022-10-31T14:17:38;98882.06;;;1.05;87.09
71948;BME280;63257;55.082;38.772;2022-10-31T14:20:39;98891.84;;;0.97;87.42
71948;BME280;63257;55.082;38.772;2022-10-31T14:29:31;98889.94;;;1.02;88.11
71948;BME280;63257;55.082;38.772;2022-10-31T14:51:02;98904.72;;;1.28;88.58
71948;BME280;63257;55.082;38.772;2022-10-31T14:53:49;98907.72;;;1.16;88.49
71948;BME280;63257;55.082;38.772;2022-10-31T14:56:46;98930.78;;;1.27;88.28
71948;BME280;63257;55.082;38.772;2022-10-31T14:59:21;98921.94;;;1.32;88.26
71948;BME280;63257;55.082;38.772;2022-10-31T15:02:01;98936.69;;;1.32;88.19
71948;BME280;63257;55.082;38.772;2022-10-31T15:04:29;98923.88;;;1.26;88.18
71948;BME280;63257;55.082;38.772;2022-10-31T15:07:18;98934.81;;;1.35;88.15
71948;BME280;63257;55.082;38.772;2022-10-31T15:09:59;98941.44;;;1.46;87.42
71948;BME280;63257;55.082;38.772;2022-10-31T15:12:27;98939.56;;;1.49;87.60
71948;BME280;63257;55.082;38.772;2022-10-31T15:14:54;98943.16;;;1.45;87.63
71948;BME280;63257;55.082;38.772;2022-10-31T15:17:44;98942.00;;;1.56;87.44
71948;BME280;63257;55.082;38.772;2022-10-31T15:20:29;98943.53;;;1.61;86.66
71948;BME280;63257;55.082;38.772;2022-10-31T15:25:42;98951.94;;;1.69;86.48
71948;BME280;63257;55.082;38.772;2022-10-31T15:28:27;98947.38;;;1.76;86.59
71948;BME280;63257;55.082;38.772;2022-10-31T15:30:55;98952.69;;;1.73;86.43
71948;BME280;63257;55.082;38.772;2022-10-31T15:33:41;98974.13;;;1.80;85.75
71948;BME280;63257;55.082;38.772;2022-10-31T15:36:24;98985.19;;;1.86;85.52
71948;BME280;63257;55.082;38.772;2022-10-31T15:38:50;98977.66;;;1.79;85.65
71948;BME280;63257;55.082;38.772;2022-10-31T15:41:37;98960.78;;;1.91;84.46
71948;BME280;63257;55.082;38.772;2022-10-31T15:44:35;98973.53;;;1.98;85.21
71948;BME280;63257;55.082;38.772;2022-10-31T15:47:04;99000.41;;;1.99;84.03
71948;BME280;63257;55.082;38.772;2022-10-31T15:49:35;98986.91;;;2.13;84.83
71948;BME280;63257;55.082;38.772;2022-10-31T15:52:15;98998.41;;;2.07;83.89
71948;BME280;63257;55.082;38.772;2022-10-31T15:54:47;98989.53;;;2.13;84.49
71948;BME280;63257;55.082;38.772;2022-10-31T15:57:15;98990.50;;;2.10;83.39
71948;BME280;63257;55.082;38.772;2022-10-31T15:59:46;99000.00;;;2.11;82.48
71948;BME280;63257;55.082;38.772;2022-10-31T16:02:14;98968.38;;;1.97;82.75
71948;BME280;63257;55.082;38.772;2022-10-31T16:04:52;99003.53;;;2.10;83.24
71948;BME280;63257;55.082;38.772;2022-10-31T16:07:19;98992.94;;;2.15;82.72
71948;BME280;63257;55.082;38.772;2022-10-31T16:12:43;99004.41;;;2.09;83.46
71948;BME280;63257;55.082;38.772;2022-10-31T16:15:15;99013.94;;;2.10;83.67
71948;BME280;63257;55.082;38.772;2022-10-31T16:18:00;99020.88;;;2.10;82.44
71948;BME280;63257;55.082;38.772;2022-10-31T16:20:52;99024.38;;;2.09;81.91
71948;BME280;63257;55.082;38.772;2022-10-31T16:23:22;99026.97;;;2.10;83.24
71948;BME280;63257;55.082;38.772;2022-10-31T16:25:50;99026.97;;;2.09;83.76
71948;BME280;63257;55.082;38.772;2022-10-31T16:28:21;99032.19;;;2.09;82.98
71948;BME280;63257;55.082;38.772;2022-10-31T16:30:50;99019.78;;;1.90;83.11
71948;BME280;63257;55.082;38.772;2022-10-31T16:33:35;99026.34;;;2.02;83.50
71948;BME280;63257;55.082;38.772;2022-10-31T16:38:58;99054.16;;;2.00;84.42
71948;BME280;63257;55.082;38.772;2022-10-31T16:41:48;99073.56;;;1.91;84.00
71948;BME280;63257;55.082;38.772;2022-10-31T16:44:33;99050.31;;;1.85;84.23
71948;BME280;63257;55.082;38.772;2022-10-31T16:47:14;99047.66;;;1.86;84.52
71948;BME280;63257;55.082;38.772;2022-10-31T16:49:44;99053.91;;;1.81;84.94
71948;BME280;63257;55.082;38.772;2022-10-31T16:54:57;99092.88;;;1.82;85.22
71948;BME280;63257;55.082;38.772;2022-10-31T16:57:44;99051.03;;;1.90;86.11
71948;BME280;63257;55.082;38.772;2022-10-31T17:05:43;99071.28;;;1.80;85.19
71948;BME280;63257;55.082;38.772;2022-10-31T17:08:10;99072.13;;;1.81;85.55
71948;BME280;63257;55.082;38.772;2022-10-31T17:10:36;99067.13;;;1.75;84.36
71948;BME280;63257;55.082;38.772;2022-10-31T17:13:04;99080.59;;;1.88;83.56
71948;BME280;63257;55.082;38.772;2022-10-31T17:15:39;99082.34;;;1.87;84.45
71948;BME280;63257;55.082;38.772;2022-10-31T17:18:30;99083.00;;;1.94;84.28
71948;BME280;63257;55.082;38.772;2022-10-31T17:24:01;99084.81;;;1.92;84.36
71948;BME280;63257;55.082;38.772;2022-10-31T17:26:47;99072.59;;;1.94;83.97
71948;BME280;63257;55.082;38.772;2022-10-31T17:29:13;99078.00;;;1.88;83.45
71948;BME280;63257;55.082;38.772;2022-10-31T17:31:57;99098.91;;;1.84;83.67
71948;BME280;63257;55.082;38.772;2022-10-31T17:34:43;99102.13;;;1.93;83.32
71948;BME280;63257;55.082;38.772;2022-10-31T17:37:29;99118.47;;;1.98;82.58
71948;BME280;63257;55.082;38.772;2022-10-31T17:39:55;99100.19;;;1.99;82.02
71948;BME280;63257;55.082;38.772;2022-10-31T17:42:39;99097.53;;;2.01;81.17
71948;BME280;63257;55.082;38.772;2022-10-31T17:45:06;99104.63;;;1.96;80.84
71948;BME280;63257;55.082;38.772;2022-10-31T17:47:33;99118.34;;;2.01;81.10
71948;BME280;63257;55.082;38.772;2022-10-31T17:49:59;99111.28;;;2.04;80.08
71948;BME280;63257;55.082;38.772;2022-10-31T17:52:30;99109.53;;;2.05;80.32
71948;BME280;63257;55.082;38.772;2022-10-31T17:54:56;99090.72;;;1.97;79.89
71948;BME280;63257;55.082;38.772;2022-10-31T17:57:22;99094.16;;;1.97;80.37
71948;BME280;63257;55.082;38.772;2022-10-31T18:00:11;99110.50;;;2.02;80.76
71948;BME280;63257;55.082;38.772;2022-10-31T18:02:38;99125.34;;;1.99;79.92
71948;BME280;63257;55.082;38.772;2022-10-31T18:05:04;99120.84;;;2.04;80.44
71948;BME280;63257;55.082;38.772;2022-10-31T18:07:31;99135.53;;;2.07;79.92
71948;BME280;63257;55.082;38.772;2022-10-31T18:09:58;99132.16;;;2.03;79.99
71948;BME280;63257;55.082;38.772;2022-10-31T18:12:24;99124.34;;;2.03;79.67
71948;BME280;63257;55.082;38.772;2022-10-31T18:14:52;99116.59;;;2.01;79.52
71948;BME280;63257;55.082;38.772;2022-10-31T18:17:19;99127.66;;;2.08;79.29
71948;BME280;63257;55.082;38.772;2022-10-31T18:22:31;99133.47;;;2.16;78.97
71948;BME280;63257;55.082;38.772;2022-10-31T18:24:57;99126.88;;;2.06;78.71
71948;BME280;63257;55.082;38.772;2022-10-31T18:30:28;99139.78;;;2.09;78.24
71948;BME280;63257;55.082;38.772;2022-10-31T18:33:12;99148.25;;;2.16;78.06
71948;BME280;63257;55.082;38.772;2022-10-31T18:35:39;99148.50;;;2.08;78.24
71948;BME280;63257;55.082;38.772;2022-10-31T18:38:23;99169.38;;;2.07;77.42
71948;BME280;63257;55.082;38.772;2022-10-31T18:40:51;99165.66;;;2.14;77.22
71948;BME280;63257;55.082;38.772;2022-10-31T18:43:16;99160.50;;;2.12;77.65
71948;BME280;63257;55.082;38.772;2022-10-31T18:45:44;99169.81;;;2.19;76.85
71948;BME280;63257;55.082;38.772;2022-10-31T18:48:31;99151.16;;;2.07;76.97
71948;BME280;63257;55.082;38.772;2022-10-31T18:51:06;99144.19;;;2.07;77.24
71948;BME280;63257;55.082;38.772;2022-10-31T18:53:33;99164.06;;;2.10;76.95
71948;BME280;63257;55.082;38.772;2022-10-31T18:56:00;99193.56;;;2.10;77.12
71948;BME280;63257;55.082;38.772;2022-10-31T18:58:26;99178.72;;;2.12;76.68
71948;BME280;63257;55.082;38.772;2022-10-31T19:00:54;99190.59;;;2.23;77.17
71948;BME280;63257;55.082;38.772;2022-10-31T19:03:20;99207.81;;;2.27;77.21
71948;BME280;63257;55.082;38.772;2022-10-31T19:09:08;99204.53;;;2.20;76.78
71948;BME280;63257;55.082;38.772;2022-10-31T19:11:35;99178.94;;;2.06;76.46
71948;BME280;63257;55.082;38.772;2022-10-31T19:16:46;99213.03;;;2.25;76.59
71948;BME280;63257;55.082;38.772;2022-10-31T19:19:12;99224.13;;;2.32;76.59
71948;BME280;63257;55.082;38.772;2022-10-31T19:21:38;99216.63;;;2.23;76.26
71948;BME280;63257;55.082;38.772;2022-10-31T19:24:22;99210.44;;;2.25;76.35
71948;BME280;63257;55.082;38.772;2022-10-31T19:26:49;99214.72;;;2.28;76.19
71948;BME280;63257;55.082;38.772;2022-10-31T19:29:15;99219.91;;;2.28;76.24
71948;BME280;63257;55.082;38.772;2022-10-31T19:31:41;99229.66;;;2.23;75.99
71948;BME280;63257;55.082;38.772;2022-10-31T19:34:13;99222.66;;;2.23;76.01
71948;BME280;63257;55.082;38.772;2022-10-31T19:36:57;99230.44;;;2.25;75.94
71948;BME280;63257;55.082;38.772;2022-10-31T19:40:00;99229.28;;;2.33;75.71
71948;BME280;63257;55.082;38.772;2022-10-31T19:42:28;99208.88;;;2.19;76.56
71948;BME280;63257;55.082;38.772;2022-10-31T19:44:57;99240.69;;;2.29;76.23
71948;BME280;63257;55.082;38.772;2022-10-31T19:47:42;99237.88;;;2.37;75.95
71948;BME280;63257;55.082;38.772;2022-10-31T19:50:11;99239.91;;;2.27;75.81
71948;BME280;63257;55.082;38.772;2022-10-31T19:52:37;99249.22;;;2.34;75.61
71948;BME280;63257;55.082;38.772;2022-10-31T19:55:06;99252.81;;;2.30;75.75
71948;BME280;63257;55.082;38.772;2022-10-31T19:57:35;99252.88;;;2.29;75.76
71948;BME280;63257;55.082;38.772;2022-10-31T20:00:02;99262.81;;;2.44;75.81
71948;BME280;63257;55.082;38.772;2022-10-31T20:07:11;99246.88;;;2.27;75.86
71948;BME280;63257;55.082;38.772;2022-10-31T20:12:54;99272.03;;;2.26;75.54
71948;BME280;63257;55.082;38.772;2022-10-31T20:15:20;99252.44;;;2.14;75.21
71948;BME280;63257;55.082;38.772;2022-10-31T20:22:04;99261.41;;;2.34;75.72
71948;BME280;63257;55.082;38.772;2022-10-31T20:24:31;99250.75;;;2.13;75.88
71948;BME280;63257;55.082;38.772;2022-10-31T20:31:13;99267.56;;;2.31;75.61
71948;BME280;63257;55.082;38.772;2022-10-31T20:33:58;99300.94;;;2.18;75.38
71948;BME280;63257;55.082;38.772;2022-10-31T20:39:49;99265.69;;;2.36;75.51